Time;durP1;ratioP1;P1;durP2;ratioP2;P2;SDS_P1;SDS_P2;PMS_P1;PMS_P2;Temp;Humidity;BMP_temperature;BMP_pressure;BME280_temperature;BME280_humidity;BME280_pressure;Samples;Min_cycle;Max_cycle;Signal;HPM_P1;HPM_P2
2021/03/11 00:01:19;;;;;;;44.38;4.47;;;;;;;11.65;83.80;98276.91;6239799;23;20014;-77
2021/03/11 00:04:00;;;;;;;43.08;4.50;;;;;;;11.44;84.95;98271.31;6213912;23;20331;-75
2021/03/11 00:06:25;;;;;;;41.28;5.65;;;;;;;11.29;86.53;98231.56;6240249;23;20382;-76
2021/03/11 00:08:51;;;;;;;62.13;9.15;;;;;;;11.28;87.41;98235.44;6208260;23;20012;-76
2021/03/11 00:11:35;;;;;;;;;;;;;;;;;;;;;
2021/03/11 00:14:09;;;;;;;54.60;7.03;;;;;;;11.12;88.16;98204.25;6244027;23;20091;-77
2021/03/11 00:16:38;;;;;;;66.03;7.63;;;;;;;11.16;87.67;98194.28;6239048;23;20029;-77
2021/03/11 00:19:03;;;;;;;59.85;7.72;;;;;;;11.12;89.17;98185.09;6242228;23;20091;-77
2021/03/11 00:21:39;;;;;;;51.30;7.40;;;;;;;11.15;90.77;98200.84;6213815;23;20020;-79
2021/03/11 00:24:14;;;;;;;87.65;9.23;;;;;;;11.09;90.31;98183.81;6216188;23;20062;-74
2021/03/11 00:26:50;;;;;;;;;;;;;;;;;;;;;
2021/03/11 00:29:18;;;;;;;101.80;8.50;;;;;;;11.14;90.42;98174.63;6240511;23;20075;-75
2021/03/11 00:31:43;;;;;;;91.22;9.32;;;;;;;11.14;90.26;98180.91;6191033;23;20023;-77
2021/03/11 00:34:12;;;;;;;105.57;12.00;;;;;;;11.11;89.79;98161.59;6243336;23;20004;-75
2021/03/11 00:36:41;;;;;;;75.93;10.05;;;;;;;11.14;89.94;98226.59;6228658;23;20007;-76
2021/03/11 00:39:17;;;;;;;86.13;10.35;;;;;;;11.26;89.49;98193.13;6241279;23;20004;-78
2021/03/11 00:41:50;;;;;;;102.72;9.95;;;;;;;11.22;88.99;98203.91;6241837;23;20000;-78
2021/03/11 00:44:15;;;;;;;92.53;9.90;;;;;;;11.10;88.67;98195.56;6211355;23;20011;-76
2021/03/11 00:46:48;;;;;;;96.22;9.13;;;;;;;11.10;89.42;98220.19;6208551;23;20431;-77
2021/03/11 00:49:36;;;;;;;83.05;9.85;;;;;;;11.06;89.29;98205.53;6237917;23;20008;-76
2021/03/11 00:52:17;;;;;;;;;;;;;;;;;;;;;
2021/03/11 00:54:47;;;;;;;85.97;10.35;;;;;;;11.03;88.55;98189.78;6235906;23;20079;-76
2021/03/11 00:57:12;;;;;;;95.68;10.02;;;;;;;11.08;88.87;98186.88;6243726;23;20000;-76
2021/03/11 00:59:38;;;;;;;78.05;9.68;;;;;;;11.11;88.52;98208.09;6229437;23;20076;-75
2021/03/11 01:02:03;;;;;;;89.75;10.75;;;;;;;11.18;87.83;98192.81;6245211;23;20004;-75
2021/03/11 01:04:29;;;;;;;112.80;11.02;;;;;;;11.24;87.73;98171.53;6217453;23;20019;-75
2021/03/11 01:06:57;;;;;;;98.63;9.52;;;;;;;11.24;87.65;98170.75;6244246;23;20081;-74
2021/03/11 01:09:39;;;;;;;105.30;10.50;;;;;;;11.22;87.69;98186.69;6235204;23;20012;-78
2021/03/11 01:12:08;;;;;;;88.15;10.10;;;;;;;11.17;88.21;98184.94;6269267;22;20082;-76
2021/03/11 01:14:43;;;;;;;97.28;9.27;;;;;;;11.16;87.43;98194.28;6242605;23;20000;-77
2021/03/11 01:17:11;;;;;;;111.05;11.88;;;;;;;11.28;86.99;98168.97;6235601;23;20316;-74
2021/03/11 01:19:37;;;;;;;115.53;9.75;;;;;;;11.37;87.32;98155.28;6235019;23;20011;-77
2021/03/11 01:22:03;;;;;;;100.10;10.73;;;;;;;11.49;86.77;98160.84;6245069;23;20004;-73
2021/03/11 01:24:28;;;;;;;99.13;10.75;;;;;;;11.48;86.54;98151.06;6217171;23;20233;-73
2021/03/11 01:26:54;;;;;;;87.72;10.63;;;;;;;11.47;86.03;98168.59;6245393;23;20011;-71
2021/03/11 01:29:19;;;;;;;84.85;10.52;;;;;;;11.46;86.69;98153.31;6245404;23;20019;-75
2021/03/11 01:31:50;;;;;;;94.60;10.57;;;;;;;11.55;85.43;98184.19;6232328;23;20008;-75
2021/03/11 01:34:21;;;;;;;99.72;12.18;;;;;;;11.55;84.70;98145.88;6242117;23;20382;-73
2021/03/11 01:36:46;;;;;;;99.68;12.25;;;;;;;11.46;84.50;98123.19;6240863;23;20004;-79
2021/03/11 01:39:14;;;;;;;85.55;11.63;;;;;;;11.46;85.09;98147.81;6267130;22;20014;-75
2021/03/11 01:41:43;;;;;;;96.90;11.95;;;;;;;11.43;84.90;98137.53;6266166;22;20008;-77
2021/03/11 01:44:09;;;;;;;85.68;10.52;;;;;;;11.36;84.43;98132.59;6221669;23;20007;-76
2021/03/11 01:46:41;;;;;;;114.68;12.80;;;;;;;11.47;84.67;98152.19;6266119;22;19996;-76
2021/03/11 01:49:09;;;;;;;122.97;11.20;;;;;;;11.60;84.43;98125.72;6238192;23;20038;-77
2021/03/11 01:51:45;;;;;;;126.85;13.10;;;;;;;11.63;84.91;98131.34;6260983;22;20027;-77
2021/03/11 01:54:26;;;;;;;107.22;13.20;;;;;;;11.52;83.52;98124.63;6211728;23;20008;-76
2021/03/11 01:56:58;;;;;;;86.60;11.63;;;;;;;11.49;83.73;98126.09;6216504;23;20085;-77
2021/03/11 01:59:41;;;;;;;143.13;15.68;;;;;;;11.59;82.67;98118.63;6270139;22;20015;-76
2021/03/11 02:02:09;;;;;;;105.10;12.07;;;;;;;11.51;82.87;98090.19;6216494;23;20000;-77
2021/03/11 02:04:34;;;;;;;91.53;9.93;;;;;;;11.43;82.46;98116.44;6204278;23;20004;-76
2021/03/11 02:07:00;;;;;;;95.47;11.07;;;;;;;11.43;82.75;98101.97;6238254;23;20069;-76
2021/03/11 02:09:33;;;;;;;110.45;12.52;;;;;;;11.41;82.42;98096.03;6243171;23;20004;-77
2021/03/11 02:12:01;;;;;;;96.35;11.35;;;;;;;11.38;81.49;98077.53;6212307;23;20004;-75
2021/03/11 02:14:55;;;;;;;89.95;10.85;;;;;;;11.37;84.05;98078.66;6240255;23;20008;-78
2021/03/11 02:17:30;;;;;;;105.03;12.57;;;;;;;11.21;84.13;98054.56;6238777;23;20004;-77
2021/03/11 02:20:33;;;;;;;71.97;10.20;;;;;;;11.08;84.26;98089.22;6263777;22;20011;-73
2021/03/11 02:23:28;;;;;;;97.43;9.20;;;;;;;11.18;84.57;98055.22;6205349;23;20698;-75
2021/03/11 02:26:32;;;;;;;69.10;10.55;;;;;;;11.13;85.33;98063.63;6207838;23;20052;-75
2021/03/11 02:29:10;;;;;;;72.18;9.63;;;;;;;11.20;83.92;98052.97;6222052;23;20412;-77
2021/03/11 02:31:37;;;;;;;63.95;9.00;;;;;;;11.05;82.23;98035.16;6239897;23;20055;-76
2021/03/11 02:34:10;;;;;;;156.95;14.60;;;;;;;11.08;82.82;98022.78;6231901;23;20012;-74
2021/03/11 02:36:40;;;;;;;71.68;9.35;;;;;;;11.10;83.74;98037.72;6243483;23;20007;-75
2021/03/11 02:39:14;;;;;;;64.95;8.35;;;;;;;11.11;83.69;98049.47;6239300;23;20004;-75
2021/03/11 02:41:42;;;;;;;68.57;9.10;;;;;;;11.16;83.62;98047.34;6242009;23;20318;-77
2021/03/11 02:44:12;;;;;;;79.60;9.65;;;;;;;11.08;83.05;98061.06;6237050;23;20308;-74
2021/03/11 02:46:39;;;;;;;74.07;9.05;;;;;;;11.08;84.19;98022.78;6236331;23;20030;-76
2021/03/11 02:49:05;;;;;;;78.35;9.90;;;;;;;10.97;84.94;98030.53;6241879;23;20004;-76
2021/03/11 02:51:31;;;;;;;75.65;8.05;;;;;;;10.88;85.77;98007.88;6215635;23;20015;-75
2021/03/11 02:53:58;;;;;;;78.65;10.10;;;;;;;10.91;84.07;98034.59;6213165;23;20019;-74
2021/03/11 02:56:25;;;;;;;64.88;8.27;;;;;;;11.00;84.20;97997.84;6260980;22;20091;-79
2021/03/11 02:58:54;;;;;;;68.70;9.00;;;;;;;11.10;80.97;97971.28;6240913;23;20000;-76
2021/03/11 03:01:21;;;;;;;92.78;9.63;;;;;;;11.11;81.96;97945.53;6234007;23;20010;-77
2021/03/11 03:03:48;;;;;;;76.63;9.18;;;;;;;11.05;80.66;97958.59;6266191;22;20593;-76
2021/03/11 03:06:16;;;;;;;66.32;8.63;;;;;;;11.03;81.33;97984.69;6242767;23;20008;-78
2021/03/11 03:08:54;;;;;;;67.65;9.15;;;;;;;10.88;79.84;97997.75;6241321;23;20008;-79
2021/03/11 03:11:23;;;;;;;72.30;9.90;;;;;;;10.91;78.85;98005.31;6266561;22;20335;-75
2021/03/11 03:13:54;;;;;;;49.17;7.57;;;;;;;10.92;82.50;98033.44;6216475;23;20005;-80
2021/03/11 03:16:22;;;;;;;74.70;8.90;;;;;;;10.94;82.46;98028.47;6213142;23;20004;-76
2021/03/11 03:18:58;;;;;;;68.07;8.10;;;;;;;11.00;81.73;98022.47;6242266;23;20004;-77
2021/03/11 03:21:23;;;;;;;;;;;;;;;10.93;83.22;97981.16;6216674;23;20137;-75
2021/03/11 03:23:50;;;;;;;68.95;8.32;;;;;;;10.95;84.09;98008.16;6240144;23;20230;-80
2021/03/11 03:26:16;;;;;;;69.15;9.13;;;;;;;10.88;80.41;97992.28;6212631;23;20027;-78
2021/03/11 03:28:48;;;;;;;83.80;8.73;;;;;;;10.95;83.92;97998.06;6252125;23;20008;-71
2021/03/11 03:31:13;;;;;;;65.55;8.73;;;;;;;10.99;82.92;97982.59;6231242;23;20377;-75
2021/03/11 03:33:44;;;;;;;53.30;7.32;;;;;;;11.00;82.60;97978.72;6191442;23;20008;-80
2021/03/11 03:36:11;;;;;;;68.07;8.10;;;;;;;10.96;82.25;97990.66;6214494;23;20004;-80
2021/03/11 03:38:37;;;;;;;55.80;8.27;;;;;;;10.92;82.28;97965.91;6214678;23;20000;-79
2021/03/11 03:41:06;;;;;;;85.18;8.55;;;;;;;10.90;83.46;97987.28;6215452;23;20058;-77
2021/03/11 03:43:35;;;;;;;60.75;8.18;;;;;;;10.90;82.18;97965.41;6215642;23;20079;-78
2021/03/11 03:46:23;;;;;;;;;;;;;;;;;;;;;
2021/03/11 03:48:55;;;;;;;62.20;9.30;;;;;;;10.50;84.21;97993.03;6242877;23;20071;-78
2021/03/11 03:51:24;;;;;;;63.97;9.48;;;;;;;10.19;85.51;97993.22;6215694;23;20054;-74
2021/03/11 03:53:57;;;;;;;79.88;9.90;;;;;;;10.12;85.11;98001.91;6242453;23;20062;-75
2021/03/11 03:56:28;;;;;;;94.25;9.88;;;;;;;10.00;86.09;97985.34;6215181;23;20004;-74
2021/03/11 03:59:00;;;;;;;66.97;9.60;;;;;;;10.08;84.12;97988.09;6243399;23;20069;-72
2021/03/11 04:01:33;;;;;;;82.53;9.35;;;;;;;10.18;85.01;97975.22;6244163;23;20015;-77
2021/03/11 04:04:00;;;;;;;62.85;8.50;;;;;;;10.18;84.73;97995.16;6243362;23;20026;-74
2021/03/11 04:06:26;;;;;;;57.13;8.63;;;;;;;10.27;84.17;97990.47;6242894;23;20011;-77
2021/03/11 04:08:53;;;;;;;70.70;7.43;;;;;;;10.36;84.50;97997.88;6239686;23;20331;-73
2021/03/11 04:11:19;;;;;;;49.80;6.50;;;;;;;10.29;84.74;97977.31;6268934;22;20061;-73
2021/03/11 04:13:47;;;;;;;53.38;8.35;;;;;;;10.32;83.96;97981.31;6240238;23;20015;-75
2021/03/11 04:16:16;;;;;;;59.67;7.07;;;;;;;10.37;83.59;97966.72;6241695;23;20004;-72
2021/03/11 04:18:42;;;;;;;63.10;8.35;;;;;;;10.40;83.56;97980.53;6264738;22;20103;-73
2021/03/11 04:21:11;;;;;;;67.25;9.35;;;;;;;10.35;83.87;97955.31;6245099;23;20010;-72
2021/03/11 04:23:39;;;;;;;64.43;8.35;;;;;;;10.34;83.53;97967.34;6213530;23;20000;-74
2021/03/11 04:26:05;;;;;;;66.10;9.23;;;;;;;10.46;83.15;97979.22;6243428;22;20019;-74
2021/03/11 04:28:32;;;;;;;60.60;9.38;;;;;;;10.42;82.42;98016.50;6241105;23;20016;-73
2021/03/11 04:30:58;;;;;;;70.05;8.75;;;;;;;10.27;82.39;97987.75;6242518;23;20008;-71
2021/03/11 04:33:24;;;;;;;60.65;9.38;;;;;;;9.95;83.79;97981.66;6242186;23;20026;-73
2021/03/11 04:35:51;;;;;;;68.65;9.55;;;;;;;9.81;84.71;97983.72;6241295;23;20023;-72
2021/03/11 04:38:17;;;;;;;65.50;9.93;;;;;;;9.80;85.55;97993.06;6237971;23;20028;-75
2021/03/11 04:40:43;;;;;;;70.57;8.70;;;;;;;9.83;85.24;97978.78;6241581;23;20015;-74
2021/03/11 04:43:09;;;;;;;70.05;8.52;;;;;;;10.04;85.18;97991.78;6213578;23;20012;-75
2021/03/11 04:45:38;;;;;;;65.53;8.80;;;;;;;10.14;84.75;97977.78;6212387;23;20022;-74
2021/03/11 04:48:05;;;;;;;59.60;7.28;;;;;;;10.20;84.55;98009.28;6242152;23;20008;-74
2021/03/11 04:50:32;;;;;;;58.85;7.53;;;;;;;10.29;84.68;97985.50;6216875;23;20012;-74
2021/03/11 04:52:58;;;;;;;73.22;8.68;;;;;;;10.45;83.77;97980.38;6240533;23;20000;-75
2021/03/11 04:55:24;;;;;;;55.83;7.38;;;;;;;10.53;82.71;97991.56;6216395;23;20485;-73
2021/03/11 04:57:57;;;;;;;64.32;9.57;;;;;;;10.44;81.37;98029.84;6216904;23;20038;-72
2021/03/11 05:00:25;;;;;;;36.20;6.00;;;;;;;10.59;81.83;97998.50;6234209;23;20455;-72
2021/03/11 05:02:50;;;;;;;58.42;6.70;;;;;;;10.69;82.63;98006.34;6243058;23;20008;-78
2021/03/11 05:05:37;;;;;;;49.33;6.43;;;;;;;10.68;81.49;98010.19;6212610;23;20083;-74
2021/03/11 05:08:03;;;;;;;40.15;6.55;;;;;;;10.76;80.79;97989.41;6242462;23;20354;-71
2021/03/11 05:10:36;;;;;;;61.70;7.75;;;;;;;10.82;81.38;97999.06;6216205;23;20002;-75
2021/03/11 05:13:02;;;;;;;51.45;7.88;;;;;;;10.80;81.12;98009.50;6218937;23;20011;-71
2021/03/11 05:15:30;;;;;;;42.90;7.07;;;;;;;10.68;81.64;97984.81;6239737;23;20007;-74
2021/03/11 05:17:55;;;;;;;58.05;6.47;;;;;;;10.75;79.61;97993.31;6216087;23;20023;-73
2021/03/11 05:20:22;;;;;;;61.35;6.82;;;;;;;10.75;80.11;98015.97;6238523;23;20012;-73
2021/03/11 05:22:49;;;;;;;41.97;5.60;;;;;;;10.62;80.60;98006.81;6240641;23;20005;-73
2021/03/11 05:25:14;;;;;;;42.67;5.57;;;;;;;10.63;80.10;97985.75;6243441;23;20039;-70
2021/03/11 05:27:40;;;;;;;43.67;5.28;;;;;;;10.45;80.93;98006.88;6237651;23;20331;-71
2021/03/11 05:30:09;;;;;;;38.15;4.97;;;;;;;10.41;80.10;97989.50;6212976;23;20078;-72
2021/03/11 05:32:35;;;;;;;29.85;4.22;;;;;;;10.53;80.03;97999.78;6243100;23;20075;-72
2021/03/11 05:35:01;;;;;;;36.42;4.47;;;;;;;10.58;79.89;97999.63;6213341;23;20091;-70
2021/03/11 05:37:26;;;;;;;37.38;5.78;;;;;;;10.65;80.20;98019.84;6212170;23;20004;-72
2021/03/11 05:39:52;;;;;;;47.65;5.88;;;;;;;10.65;80.66;98022.56;6240669;23;20434;-72
2021/03/11 05:42:19;;;;;;;19.95;4.40;;;;;;;10.80;78.31;98007.56;6217935;23;20481;-71
2021/03/11 05:44:45;;;;;;;21.52;5.47;;;;;;;10.71;77.32;98036.09;6213180;23;20336;-73
2021/03/11 05:47:14;;;;;;;26.75;3.42;;;;;;;10.54;76.51;98029.53;6231367;23;20031;-75
2021/03/11 05:49:41;;;;;;;19.55;3.88;;;;;;;10.61;79.00;98020.81;6215246;23;20000;-74
2021/03/11 05:52:11;;;;;;;28.33;4.72;;;;;;;10.56;78.73;98030.00;6208890;23;20485;-72
2021/03/11 05:54:37;;;;;;;21.02;3.60;;;;;;;10.60;77.19;98041.91;6212744;23;20408;-72
2021/03/11 05:57:05;;;;;;;20.80;3.53;;;;;;;10.66;76.12;98034.31;6214705;23;20343;-72
2021/03/11 05:59:31;;;;;;;19.58;3.05;;;;;;;10.76;77.67;98087.84;6242397;23;20004;-72
2021/03/11 06:02:07;;;;;;;29.48;3.85;;;;;;;10.73;75.91;98056.50;6232042;23;20008;-69
2021/03/11 06:04:34;;;;;;;22.10;3.55;;;;;;;10.67;74.95;98040.59;6265465;22;20086;-75
2021/03/11 06:07:05;;;;;;;25.23;3.65;;;;;;;10.74;75.21;98084.63;6234700;23;20011;-73
2021/03/11 06:09:31;;;;;;;12.65;3.05;;;;;;;10.76;72.98;98074.16;6241742;23;20008;-73
2021/03/11 06:11:57;;;;;;;32.60;3.20;;;;;;;10.77;72.02;98064.84;6207216;23;20008;-73
2021/03/11 06:14:26;;;;;;;11.27;2.65;;;;;;;10.75;71.25;98059.69;6226960;23;20008;-71
2021/03/11 06:17:00;;;;;;;18.58;2.40;;;;;;;10.80;71.84;98077.84;6242435;23;20085;-74
2021/03/11 06:19:27;;;;;;;13.95;2.40;;;;;;;10.77;72.29;98083.97;6240975;23;20008;-73
2021/03/11 06:21:52;;;;;;;14.30;2.53;;;;;;;10.75;70.98;98072.56;6213139;23;20380;-71
2021/03/11 06:24:19;;;;;;;32.25;3.53;;;;;;;10.73;72.03;98088.47;6238799;23;20058;-71
2021/03/11 06:26:44;;;;;;;11.90;2.28;;;;;;;10.60;72.45;98096.56;6237035;23;20020;-66
2021/03/11 06:29:10;;;;;;;11.55;2.05;;;;;;;10.53;72.20;98089.94;6244707;23;20077;-75
2021/03/11 06:31:38;;;;;;;10.70;2.08;;;;;;;10.58;72.26;98087.84;6212000;23;20430;-72
2021/03/11 06:34:21;;;;;;;16.55;2.45;;;;;;;10.37;70.68;98106.84;6238041;23;20019;-73
2021/03/11 06:36:46;;;;;;;20.75;2.30;;;;;;;10.39;72.44;98104.59;6215806;23;20501;-70
2021/03/11 06:39:26;;;;;;;12.95;2.42;;;;;;;10.36;71.66;98080.63;6239837;23;20000;-73
2021/03/11 06:41:51;;;;;;;22.60;3.25;;;;;;;10.49;74.42;98133.53;6240603;23;20035;-74
2021/03/11 06:44:17;;;;;;;16.20;2.95;;;;;;;10.47;74.29;98122.91;6239073;23;20050;-69
2021/03/11 06:47:00;;;;;;;8.18;1.90;;;;;;;10.39;76.68;98140.09;6209922;23;20004;-70
2021/03/11 06:49:26;;;;;;;13.63;2.22;;;;;;;10.49;72.51;98136.25;6215770;23;20012;-69
2021/03/11 06:52:13;;;;;;;17.85;2.10;;;;;;;10.46;72.21;98134.16;6238052;23;20004;-73
2021/03/11 06:54:55;;;;;;;11.43;2.42;;;;;;;10.44;70.13;98153.63;6236774;23;20371;-72
2021/03/11 06:57:40;;;;;;;20.00;2.97;;;;;;;10.61;73.53;98160.19;6241475;23;20327;-74
2021/03/11 07:00:22;;;;;;;13.93;2.25;;;;;;;10.63;73.32;98193.47;6212400;23;20087;-75
2021/03/11 07:03:06;;;;;;;17.98;3.65;;;;;;;10.59;72.91;98166.00;6238103;23;20006;-75
2021/03/11 07:05:37;;;;;;;15.02;2.13;;;;;;;10.52;69.89;98171.13;6268298;22;20008;-69
2021/03/11 07:08:07;;;;;;;13.07;2.67;;;;;;;10.51;70.05;98180.44;6205891;23;20026;-72
2021/03/11 07:10:34;;;;;;;20.65;3.08;;;;;;;10.50;70.86;98194.44;6243845;23;20011;-73
2021/03/11 07:13:00;;;;;;;18.17;2.70;;;;;;;10.50;72.40;98195.25;6216971;23;20035;-73
2021/03/11 07:15:29;;;;;;;27.17;3.08;;;;;;;10.36;71.91;98205.50;6237817;23;20082;-74
2021/03/11 07:17:57;;;;;;;22.27;2.38;;;;;;;10.29;75.43;98234.09;6240601;23;20004;-75
2021/03/11 07:20:24;;;;;;;11.55;2.25;;;;;;;10.10;77.70;98236.25;6240621;23;20004;-73
2021/03/11 07:23:00;;;;;;;14.15;2.70;;;;;;;10.03;77.34;98233.19;6240751;23;20067;-73
2021/03/11 07:25:34;;;;;;;18.58;2.97;;;;;;;9.86;74.78;98237.47;6239613;23;20334;-71
2021/03/11 07:28:02;;;;;;;14.00;2.53;;;;;;;9.89;77.47;98245.00;6213883;23;20027;-72
2021/03/11 07:30:28;;;;;;;15.23;2.58;;;;;;;9.92;77.15;98241.66;6241741;23;20061;-68
2021/03/11 07:33:01;;;;;;;12.85;2.45;;;;;;;9.86;75.89;98242.91;6217010;23;20008;-71
2021/03/11 07:35:32;;;;;;;9.95;2.20;;;;;;;10.06;73.82;98251.66;6216288;23;20008;-73
2021/03/11 07:38:00;;;;;;;11.00;2.45;;;;;;;10.26;73.68;98255.75;6217805;23;20008;-72
2021/03/11 07:40:27;;;;;;;4.63;1.67;;;;;;;10.37;72.13;98256.31;6236831;23;20004;-70
2021/03/11 07:42:53;;;;;;;17.67;2.55;;;;;;;10.46;71.72;98259.84;6210655;23;20300;-67
2021/03/11 07:45:19;;;;;;;18.15;2.10;;;;;;;10.57;73.47;98291.22;6243158;23;20034;-70
2021/03/11 07:47:45;;;;;;;9.27;2.00;;;;;;;10.70;71.49;98307.81;6243318;23;20008;-71
2021/03/11 07:50:13;;;;;;;14.65;2.42;;;;;;;10.63;71.81;98308.25;6216487;23;20313;-72
2021/03/11 07:52:40;;;;;;;18.52;2.72;;;;;;;10.75;73.47;98321.34;6244143;23;20062;-70
2021/03/11 07:55:10;;;;;;;15.75;2.70;;;;;;;10.61;70.62;98310.53;6236239;23;20012;-71
2021/03/11 07:57:48;;;;;;;11.75;2.40;;;;;;;10.59;72.06;98319.03;6244482;23;20051;-71
2021/03/11 08:00:15;;;;;;;13.40;2.10;;;;;;;10.52;73.55;98331.56;6213726;23;20016;-71
2021/03/11 08:02:49;;;;;;;10.23;2.55;;;;;;;10.52;72.60;98334.31;6243368;23;20060;-71
2021/03/11 08:05:24;;;;;;;29.00;4.32;;;;;;;10.34;71.03;98338.88;6244666;23;20016;-71
2021/03/11 08:08:19;;;;;;;13.77;2.22;;;;;;;10.47;73.84;98332.53;6218650;23;19996;-70
2021/03/11 08:10:48;;;;;;;17.58;2.47;;;;;;;10.75;69.63;98345.94;6218574;23;20015;-71
2021/03/11 08:13:26;;;;;;;4.65;1.00;;;;;;;10.88;77.58;98342.28;6216028;23;20011;-70
2021/03/11 08:15:51;;;;;;;1.15;0.50;;;;;;;11.80;81.71;98344.03;6211435;23;20061;-70
2021/03/11 08:18:49;;;;;;;1.70;0.40;;;;;;;13.04;85.59;98361.63;6240798;23;20120;-70
2021/03/11 08:21:24;;;;;;;0.43;0.30;;;;;;;14.05;84.94;98363.38;6236139;23;20020;-70
2021/03/11 08:23:51;;;;;;;2.00;0.50;;;;;;;14.82;85.13;98371.09;6242563;23;20087;-69
2021/03/11 08:26:44;;;;;;;0.40;0.40;;;;;;;15.68;86.07;98385.81;6204962;23;20112;-69
2021/03/11 08:29:15;;;;;;;0.17;0.13;;;;;;;16.28;84.96;98415.44;6177844;23;20009;-69
2021/03/11 08:31:42;;;;;;;0.20;0.20;;;;;;;16.72;84.35;98404.38;6179408;23;20476;-71
2021/03/11 08:34:07;;;;;;;0.20;0.15;;;;;;;17.15;83.98;98413.72;6183197;23;20009;-70
2021/03/11 08:36:36;;;;;;;0.32;0.10;;;;;;;17.53;84.11;98409.41;6160705;23;20422;-69
2021/03/11 08:39:04;;;;;;;0.13;0.10;;;;;;;17.85;83.38;98417.59;6170131;23;20005;-70
2021/03/11 08:41:33;;;;;;;0.20;0.20;;;;;;;18.14;83.30;98413.44;6151304;23;20016;-70
2021/03/11 08:44:01;;;;;;;0.80;0.22;;;;;;;18.40;83.18;98427.75;6179117;23;20012;-72
2021/03/11 08:46:48;;;;;;;0.40;0.10;;;;;;;18.78;84.39;98434.38;6175978;23;20009;-70
2021/03/11 08:49:43;;;;;;;0.50;0.43;;;;;;;18.98;83.93;98424.03;6176921;23;20013;-70
2021/03/11 08:52:42;;;;;;;0.28;0.13;;;;;;;19.16;84.18;98435.41;6202081;23;20013;-70
2021/03/11 08:55:33;;;;;;;0.80;0.28;;;;;;;19.33;83.18;98443.19;6171483;23;20001;-70
2021/03/11 08:58:00;;;;;;;0.43;0.15;;;;;;;19.38;82.09;98444.03;6181217;23;20009;-71
2021/03/11 09:01:00;;;;;;;0.10;0.10;;;;;;;19.64;83.41;98451.53;6173794;23;20009;-71
2021/03/11 09:03:46;;;;;;;0.47;0.15;;;;;;;19.77;82.42;98464.00;6178056;23;20012;-71
2021/03/11 09:06:14;;;;;;;0.20;0.10;;;;;;;19.83;81.35;98472.81;6181975;23;20059;-70
2021/03/11 09:08:53;;;;;;;0.25;0.20;;;;;;;20.00;82.49;98463.91;6174983;23;20013;-71
2021/03/11 09:11:22;;;;;;;0.25;0.10;;;;;;;20.03;80.83;98477.06;6180297;23;20083;-72
2021/03/11 09:13:53;;;;;;;0.30;0.03;;;;;;;20.15;81.44;98469.63;6176637;23;20443;-73
2021/03/11 09:16:26;;;;;;;0.08;0.00;;;;;;;20.27;82.01;98483.28;6176192;23;20011;-72
2021/03/11 09:18:56;;;;;;;0.00;0.00;;;;;;;20.34;81.39;98483.38;6196526;23;20087;-71
2021/03/11 09:21:30;;;;;;;0.10;0.10;;;;;;;20.41;81.09;98485.41;6180418;23;20028;-71
2021/03/11 09:23:55;;;;;;;0.20;0.13;;;;;;;20.52;80.70;98483.56;6176681;23;20005;-70
2021/03/11 09:26:26;;;;;;;0.17;0.08;;;;;;;20.63;81.02;98478.09;6255332;22;20033;-71
2021/03/11 09:28:51;;;;;;;0.03;0.03;;;;;;;20.67;80.96;98490.09;6206232;23;20021;-71
2021/03/11 09:31:29;;;;;;;0.20;0.10;;;;;;;20.85;81.34;98495.84;6209697;23;20458;-71
2021/03/11 09:33:56;;;;;;;0.00;0.00;;;;;;;21.00;80.58;98490.41;6207732;23;20015;-70
2021/03/11 09:36:25;;;;;;;0.20;0.08;;;;;;;21.18;80.27;98512.78;6260740;22;20382;-71
2021/03/11 09:39:01;;;;;;;5.90;1.58;;;;;;;20.85;44.42;98528.34;6260184;22;20321;-72
2021/03/11 09:41:28;;;;;;;9.73;1.40;;;;;;;19.75;44.87;98507.94;6211796;23;19996;-72
2021/03/11 09:43:56;;;;;;;5.13;1.38;;;;;;;18.04;45.93;98502.53;6212167;23;20518;-72
2021/03/11 09:46:23;;;;;;;13.52;1.67;;;;;;;17.17;46.03;98515.53;6213052;23;20008;-73
2021/03/11 09:48:54;;;;;;;6.65;1.27;;;;;;;16.07;45.44;98509.41;6261330;22;20119;-72
2021/03/11 09:51:22;;;;;;;15.57;1.35;;;;;;;15.10;50.50;98502.50;6212505;23;20001;-71
2021/03/11 09:53:49;;;;;;;9.25;1.48;;;;;;;14.66;52.00;98513.22;6259717;22;20439;-73
2021/03/11 09:56:38;;;;;;;6.10;1.15;;;;;;;14.66;47.42;98513.22;6212977;23;20035;-74
2021/03/11 09:59:12;;;;;;;4.57;1.10;;;;;;;13.87;50.11;98516.63;6210298;23;20012;-72
2021/03/11 10:01:39;;;;;;;13.65;1.83;;;;;;;13.83;49.76;98534.91;6249476;22;20070;-72
2021/03/11 10:04:17;;;;;;;2.97;1.15;;;;;;;14.76;50.85;98536.72;6207618;23;20339;-70
2021/03/11 10:06:54;;;;;;;8.25;1.33;;;;;;;15.27;47.17;98511.69;6206722;23;20004;-71
2021/03/11 10:09:21;;;;;;;2.03;0.80;;;;;;;14.45;51.59;98544.25;6207618;23;20005;-72
2021/03/11 10:11:53;;;;;;;3.47;0.70;;;;;;;13.59;57.06;98552.00;6207653;23;20008;-77
2021/03/11 10:14:32;;;;;;;5.70;1.00;;;;;;;11.88;65.44;98561.50;6209681;23;20000;-72
2021/03/11 10:17:07;;;;;;;4.50;1.08;;;;;;;10.71;70.08;98580.84;6211611;23;20600;-73
2021/03/11 10:19:40;;;;;;;6.28;1.13;;;;;;;10.19;74.43;98556.69;6200966;23;20012;-73
2021/03/11 10:22:17;;;;;;;9.65;1.13;;;;;;;10.06;75.23;98579.34;6211196;23;20083;-72
2021/03/11 10:24:45;;;;;;;7.10;1.10;;;;;;;9.82;75.19;98569.50;6212636;22;20030;-73
2021/03/11 10:27:25;;;;;;;11.18;1.20;;;;;;;9.57;76.66;98579.84;6240658;23;20023;-72
2021/03/11 10:30:13;;;;;;;6.32;1.10;;;;;;;9.81;76.71;98578.00;6237107;23;20027;-74
2021/03/11 10:32:41;;;;;;;5.70;1.33;;;;;;;10.87;78.40;98575.00;6242998;23;20068;-74
2021/03/11 10:35:32;;;;;;;11.75;1.70;;;;;;;11.93;74.62;98572.34;6242360;23;20024;-74
2021/03/11 10:38:29;;;;;;;13.27;1.77;;;;;;;12.74;71.61;98590.06;6239639;23;20000;-73
2021/03/11 10:41:09;;;;;;;5.25;1.38;;;;;;;12.70;72.08;98580.91;6241509;23;20000;-73
2021/03/11 10:43:35;;;;;;;12.75;1.55;;;;;;;12.72;67.43;98573.13;6263325;22;20012;-73
2021/03/11 10:46:00;;;;;;;6.55;1.30;;;;;;;13.34;65.93;98582.00;6241297;23;20423;-74
2021/03/11 10:48:26;;;;;;;5.70;1.35;;;;;;;13.85;58.34;98589.53;6212672;23;20008;-72
2021/03/11 10:50:53;;;;;;;8.07;1.08;;;;;;;14.35;57.96;98582.38;6232458;23;20008;-72
2021/03/11 10:53:35;;;;;;;7.70;0.63;;;;;;;15.57;51.24;98607.88;6214667;23;20011;-73
2021/03/11 10:56:11;;;;;;;7.30;0.95;;;;;;;16.42;55.47;98611.69;6217505;23;20431;-74
2021/03/11 10:58:39;;;;;;;3.85;1.15;;;;;;;16.91;58.18;98614.28;6214226;23;20031;-75
2021/03/11 11:01:09;;;;;;;2.38;0.82;;;;;;;18.49;52.11;98611.78;6214629;23;20304;-77
2021/03/11 11:03:37;;;;;;;3.00;1.55;;;;;;;18.69;50.36;98635.88;6215499;23;20012;-73
2021/03/11 11:06:07;;;;;;;1.95;0.43;;;;;;;18.43;47.59;98640.13;6243175;23;20083;-74
2021/03/11 11:08:37;;;;;;;7.07;0.55;;;;;;;18.20;47.59;98632.50;6242880;23;19996;-73
2021/03/11 11:11:03;;;;;;;2.03;0.65;;;;;;;19.13;47.64;98632.84;6239951;23;20506;-72
2021/03/11 11:13:32;;;;;;;2.60;0.73;;;;;;;19.11;42.98;98635.16;6242123;23;20012;-71
2021/03/11 11:15:57;;;;;;;2.20;0.43;;;;;;;18.92;46.04;98636.00;6241945;23;20000;-75
2021/03/11 11:18:23;;;;;;;2.90;0.75;;;;;;;19.04;41.28;98640.56;6242546;23;20525;-72
2021/03/11 11:20:49;;;;;;;2.15;1.00;;;;;;;18.17;41.96;98632.44;6189939;23;20481;-72
2021/03/11 11:23:15;;;;;;;5.53;0.90;;;;;;;17.76;42.09;98635.41;6236687;23;20099;-73
2021/03/11 11:25:41;;;;;;;1.02;0.60;;;;;;;16.56;48.33;98625.09;6242830;22;20047;-73
2021/03/11 11:28:06;;;;;;;2.53;0.70;;;;;;;15.24;46.21;98650.81;6243240;23;20107;-72
2021/03/11 11:30:32;;;;;;;6.32;1.27;;;;;;;14.47;48.68;98646.50;6215641;23;20008;-73
2021/03/11 11:33:00;;;;;;;3.42;0.73;;;;;;;14.89;53.46;98653.13;6218202;23;20012;-74
2021/03/11 11:35:28;;;;;;;1.75;0.57;;;;;;;14.98;53.09;98645.59;6243091;23;20062;-73
2021/03/11 11:37:53;;;;;;;4.97;0.80;;;;;;;15.28;52.62;98639.94;6214057;23;20087;-72
2021/03/11 11:40:20;;;;;;;9.98;1.25;;;;;;;16.08;51.06;98649.69;6192800;23;20027;-73
2021/03/11 11:42:46;;;;;;;5.22;0.75;;;;;;;18.02;52.70;98650.63;6218004;23;20012;-73
2021/03/11 11:45:12;;;;;;;4.35;0.70;;;;;;;19.09;42.78;98656.91;6213601;23;20008;-71
2021/03/11 11:47:43;;;;;;;4.57;1.00;;;;;;;18.01;36.05;98651.81;6266129;22;20095;-71
2021/03/11 11:50:10;;;;;;;9.63;1.15;;;;;;;16.58;40.44;98656.69;6211825;23;20036;-72